Main page
METAR-TAF:

METAR-TAF

Airports :

Deauville, France

Deauville – Normandie Airport

latitude: 49-21-55N, longitude: 000-09-16E, elevation: 146 m

Current weather observation

The report was made 18 minutes ago, at 17:30 UTC
Wind 5 kt from the North/Northwest, varying between West/Northwest and North
Temperature 11°C
Humidity 71%
Pressure 1018 hPa
Visibility 10 km or more
no clouds below 1500 m and no cumulonimbus

METAR: LFRG 281730Z AUTO 33005KT 290V360 CAVOK 11/06 Q1018 NOSIG

Time: 19:48 (17:48 UTC)

Forecast

The report was made 3 hours and 48 minutes ago, at 14:00 UTC
Forecast valid from 28 at 15 UTC to 28 at 24 UTC
Wind 10 kt from the North/Northwest
Visibility 10 km or more
Broken clouds at a height of 2000 ft
Becoming
from 28 at 16 UTC to 28 at 18 UTC
Wind 5 kt from the North/Northwest
Becoming
from 28 at 22 UTC to 28 at 24 UTC
Visibility: 3000 m
mist

TAF: LFRG 281400Z 2815/2824 33010KT 9999 BKN020 BECMG 2816/2818 33005KT BECMG 2822/2824 3000 BR

Weather observations and forecasts of more than 4000 airports (METAR and TAF reports).

The available stations are represented by yellow and red dots on the map.

Hover mouse over dot to see the name of the station.

Then click to see weather observations and forecasts.

To change the map : click on the green buttons with a black cross to zoom in, on the green button with a dash to zoom out, or on the green arrows for adjacent maps.


METAR-TAF: